Time;durP1;ratioP1;P1;durP2;ratioP2;P2;SDS_P1;SDS_P2;PMS_P1;PMS_P2;Temp;Humidity;BMP_temperature;BMP_pressure;BME280_temperature;BME280_humidity;BME280_pressure;Samples;Min_cycle;Max_cycle;Signal;HPM_P1;HPM_P2
2022/10/24 00:00:27;;;;;;;343.10;35.20;;;;;;;;;;4956393;28;20215;-45
2022/10/24 00:03:14;;;;;;;173.38;26.88;;;;;;;;;;4956140;29;20211;-45
2022/10/24 00:05:42;;;;;;;83.00;25.67;;;;;;;;;;4956105;29;20247;-45
2022/10/24 00:08:10;;;;;;;86.07;25.05;;;;;;;;;;4956071;28;20200;-45
2022/10/24 00:10:41;;;;;;;79.80;25.95;;;;;;;;;;4956501;29;20552;-45
2022/10/24 00:13:09;;;;;;;67.07;26.15;;;;;;;;;;4956046;29;20227;-45
2022/10/24 00:15:36;;;;;;;74.30;28.58;;;;;;;;;;4956306;29;20211;-45
2022/10/24 00:18:03;;;;;;;96.57;28.55;;;;;;;;;;4956236;29;20592;-45
2022/10/24 00:20:31;;;;;;;84.82;28.83;;;;;;;;;;4956047;29;20212;-45
2022/10/24 00:22:58;;;;;;;115.05;28.48;;;;;;;;;;4955946;28;20204;-45
2022/10/24 00:25:25;;;;;;;107.22;30.23;;;;;;;;;;4957845;28;20226;-45
2022/10/24 00:27:52;;;;;;;104.38;35.00;;;;;;;;;;4959481;28;20275;-45
2022/10/24 00:30:19;;;;;;;122.55;35.78;;;;;;;;;;4958106;29;20227;-45
2022/10/24 00:32:46;;;;;;;118.85;37.00;;;;;;;;;;4959591;28;20238;-45
2022/10/24 00:35:13;;;;;;;154.07;41.90;;;;;;;;;;4959814;29;20210;-45
2022/10/24 00:37:40;;;;;;;121.90;38.83;;;;;;;;;;4957970;29;20619;-47
2022/10/24 00:40:09;;;;;;;88.78;33.25;;;;;;;;;;4959485;28;20211;-45
2022/10/24 00:42:36;;;;;;;74.85;33.67;;;;;;;;;;4959410;29;20207;-45
2022/10/24 00:45:32;;;;;;;109.28;35.40;;;;;;;;;;4959053;29;20541;-46
2022/10/24 00:47:59;;;;;;;480.38;171.07;;;;;;;;;;4959569;29;20204;-47
2022/10/24 00:50:27;;;;;;;449.08;156.20;;;;;;;;;;4958147;29;20294;-45
2022/10/24 00:52:54;;;;;;;334.73;117.43;;;;;;;;;;4958433;29;20210;-45
2022/10/24 00:55:21;;;;;;;176.38;60.88;;;;;;;;;;4959032;28;20203;-45
2022/10/24 00:57:52;;;;;;;221.20;63.40;;;;;;;;;;4959268;28;20514;-45
2022/10/24 01:00:25;;;;;;;91.13;35.42;;;;;;;;;;4958307;29;20258;-45
2022/10/24 01:02:52;;;;;;;297.27;46.92;;;;;;;;;;4959374;28;20203;-45
2022/10/24 01:05:21;;;;;;;102.85;33.45;;;;;;;;;;4959610;28;20567;-45
2022/10/24 01:08:13;;;;;;;224.50;39.00;;;;;;;;;;4958176;29;20204;-45
2022/10/24 01:10:58;;;;;;;99.88;31.85;;;;;;;;;;4958777;28;20235;-45
2022/10/24 01:13:31;;;;;;;109.82;34.50;;;;;;;;;;4959505;28;20210;-45
2022/10/24 01:16:14;;;;;;;74.55;31.48;;;;;;;;;;4958833;28;20199;-46
2022/10/24 01:18:49;;;;;;;225.93;85.40;;;;;;;;;;4958735;28;20215;-45
2022/10/24 01:21:23;;;;;;;385.15;123.68;;;;;;;;;;4957814;29;20215;-46
2022/10/24 01:24:00;;;;;;;88.10;43.15;;;;;;;;;;4958960;28;20237;-45
2022/10/24 01:27:05;;;;;;;68.20;28.65;;;;;;;;;;4958963;28;20211;-45
2022/10/24 01:29:51;;;;;;;68.18;31.88;;;;;;;;;;4958360;28;20631;-45
2022/10/24 01:32:49;;;;;;;56.97;26.98;;;;;;;;;;4958953;28;20207;-45
2022/10/24 01:35:41;;;;;;;162.82;58.28;;;;;;;;;;4958262;28;20245;-46
2022/10/24 01:38:13;;;;;;;124.63;50.17;;;;;;;;;;4957156;28;20218;-45
2022/10/24 01:41:06;;;;;;;216.60;74.70;;;;;;;;;;4958245;28;20210;-45
2022/10/24 01:43:37;;;;;;;77.72;33.50;;;;;;;;;;4958551;29;20577;-45
2022/10/24 01:46:08;;;;;;;82.50;29.42;;;;;;;;;;4957164;29;20635;-45
2022/10/24 01:48:43;;;;;;;54.30;28.48;;;;;;;;;;4958052;29;20556;-45
2022/10/24 01:51:11;;;;;;;68.53;29.15;;;;;;;;;;4957860;28;20223;-45
2022/10/24 01:53:39;;;;;;;72.15;29.85;;;;;;;;;;4957900;29;20651;-45
2022/10/24 01:56:06;;;;;;;72.65;29.85;;;;;;;;;;4957348;29;20214;-45
2022/10/24 01:58:33;;;;;;;73.95;28.33;;;;;;;;;;4957966;28;20200;-46
2022/10/24 02:01:06;;;;;;;119.95;33.35;;;;;;;;;;4958185;29;20584;-45
2022/10/24 02:03:40;;;;;;;67.10;29.17;;;;;;;;;;4957632;29;20208;-44
2022/10/24 02:06:12;;;;;;;97.53;31.17;;;;;;;;;;4957688;28;20195;-45
2022/10/24 02:08:43;;;;;;;156.90;50.85;;;;;;;;;;4957116;29;20226;-46
2022/10/24 02:11:10;;;;;;;195.38;35.13;;;;;;;;;;4957019;29;20211;-45
2022/10/24 02:13:48;;;;;;;259.90;52.17;;;;;;;;;;4956709;29;20278;-45
2022/10/24 02:16:17;;;;;;;77.57;30.13;;;;;;;;;;4956732;29;20207;-45
2022/10/24 02:18:46;;;;;;;71.57;29.08;;;;;;;;;;4956871;29;20251;-45
2022/10/24 02:21:52;;;;;;;204.65;35.95;;;;;;;;;;4956990;29;20266;-45
2022/10/24 02:24:28;;;;;;;110.55;30.70;;;;;;;;;;4956547;29;20635;-45
2022/10/24 02:27:09;;;;;;;263.63;41.33;;;;;;;;;;4956486;29;20290;-45
2022/10/24 02:29:36;;;;;;;62.83;27.85;;;;;;;;;;4956866;29;20211;-45
2022/10/24 02:32:20;;;;;;;57.92;27.15;;;;;;;;;;4957314;28;20219;-45
2022/10/24 02:34:48;;;;;;;61.65;26.75;;;;;;;;;;4957106;29;20211;-46
2022/10/24 02:37:15;;;;;;;58.60;25.73;;;;;;;;;;4957441;28;20278;-45
2022/10/24 02:39:45;;;;;;;60.35;28.30;;;;;;;;;;4956527;29;20219;-46
2022/10/24 02:42:13;;;;;;;99.15;45.53;;;;;;;;;;4957020;28;20266;-47
2022/10/24 02:44:41;;;;;;;141.88;61.35;;;;;;;;;;4956140;29;20627;-45
2022/10/24 02:47:10;;;;;;;158.95;85.18;;;;;;;;;;4956388;29;20219;-45
2022/10/24 02:49:37;;;;;;;89.90;45.13;;;;;;;;;;4956146;28;20646;-47
2022/10/24 02:52:05;;;;;;;59.53;31.27;;;;;;;;;;4956992;28;20697;-45
2022/10/24 02:54:32;;;;;;;54.90;27.25;;;;;;;;;;4956152;29;20207;-46
2022/10/24 02:57:01;;;;;;;57.88;27.60;;;;;;;;;;4956970;28;20204;-45
2022/10/24 02:59:29;;;;;;;62.05;28.42;;;;;;;;;;4957070;29;20630;-45
2022/10/24 03:01:56;;;;;;;51.50;25.67;;;;;;;;;;4957435;28;20278;-45
2022/10/24 03:04:23;;;;;;;50.08;26.50;;;;;;;;;;4956785;29;20250;-45
2022/10/24 03:06:52;;;;;;;60.47;27.73;;;;;;;;;;4957079;28;20626;-45
2022/10/24 03:09:19;;;;;;;64.03;29.77;;;;;;;;;;4956890;28;20227;-46
2022/10/24 03:11:46;;;;;;;62.30;29.08;;;;;;;;;;4955694;29;20298;-45
2022/10/24 03:14:13;;;;;;;63.85;30.88;;;;;;;;;;4956441;29;20270;-45
2022/10/24 03:16:40;;;;;;;57.35;29.45;;;;;;;;;;4956654;28;20240;-45
2022/10/24 03:19:07;;;;;;;67.13;30.73;;;;;;;;;;4956788;29;20258;-45
2022/10/24 03:21:35;;;;;;;54.33;30.50;;;;;;;;;;4955246;29;20631;-45
2022/10/24 03:24:02;;;;;;;68.72;30.10;;;;;;;;;;4956775;28;20627;-45
2022/10/24 03:26:30;;;;;;;77.95;34.35;;;;;;;;;;4956501;29;20706;-45
2022/10/24 03:28:57;;;;;;;56.67;30.92;;;;;;;;;;4955680;29;20655;-45
2022/10/24 03:31:24;;;;;;;82.85;31.15;;;;;;;;;;4955508;28;20258;-45
2022/10/24 03:33:51;;;;;;;64.28;33.40;;;;;;;;;;4956220;28;20625;-45
2022/10/24 03:36:18;;;;;;;58.38;30.60;;;;;;;;;;4956291;28;20262;-45
2022/10/24 03:38:45;;;;;;;63.30;32.25;;;;;;;;;;4956226;28;20223;-45
2022/10/24 03:41:12;;;;;;;73.82;40.63;;;;;;;;;;4955885;28;20653;-45
2022/10/24 03:43:39;;;;;;;59.50;33.58;;;;;;;;;;4956609;28;20524;-45
2022/10/24 03:46:06;;;;;;;61.40;34.85;;;;;;;;;;4955870;29;20646;-45
2022/10/24 03:48:33;;;;;;;69.78;33.42;;;;;;;;;;4955931;28;20516;-45
2022/10/24 03:51:00;;;;;;;77.90;38.10;;;;;;;;;;4960347;28;20599;-45
2022/10/24 03:53:28;;;;;;;88.05;42.22;;;;;;;;;;4957631;28;20218;-46
2022/10/24 03:55:56;;;;;;;67.10;35.25;;;;;;;;;;4959866;28;20199;-45
2022/10/24 03:58:23;;;;;;;94.65;43.08;;;;;;;;;;4956084;29;20270;-46
2022/10/24 04:00:50;;;;;;;75.50;36.78;;;;;;;;;;4948339;28;20240;-45
2022/10/24 04:03:18;;;;;;;72.57;38.40;;;;;;;;;;4958058;28;20231;-44
2022/10/24 04:05:45;;;;;;;71.63;36.25;;;;;;;;;;4959099;28;20314;-45
2022/10/24 04:08:12;;;;;;;73.97;37.58;;;;;;;;;;4959300;28;20227;-45
2022/10/24 04:10:39;;;;;;;71.60;37.80;;;;;;;;;;4958547;28;20227;-45
2022/10/24 04:13:06;;;;;;;80.95;40.63;;;;;;;;;;4959173;28;20250;-45
2022/10/24 04:15:33;;;;;;;74.70;37.97;;;;;;;;;;4957665;28;20223;-46
2022/10/24 04:18:00;;;;;;;62.08;32.72;;;;;;;;;;4959086;28;20234;-45
2022/10/24 04:20:27;;;;;;;73.10;38.53;;;;;;;;;;4958648;28;20227;-46
2022/10/24 04:22:54;;;;;;;62.40;34.40;;;;;;;;;;4958926;28;20282;-45
2022/10/24 04:25:21;;;;;;;65.18;35.53;;;;;;;;;;4958641;28;20231;-45
2022/10/24 04:27:48;;;;;;;60.78;33.00;;;;;;;;;;4958742;28;20231;-46
2022/10/24 04:30:15;;;;;;;60.88;33.05;;;;;;;;;;4958227;28;20645;-45
2022/10/24 04:32:43;;;;;;;57.95;30.77;;;;;;;;;;4958370;28;20693;-45
2022/10/24 04:35:10;;;;;;;54.28;29.45;;;;;;;;;;4958470;28;20737;-45
2022/10/24 04:37:38;;;;;;;54.08;29.60;;;;;;;;;;4958573;28;20230;-45
2022/10/24 04:40:05;;;;;;;56.90;30.73;;;;;;;;;;4958423;28;20254;-44
2022/10/24 04:42:32;;;;;;;60.63;31.70;;;;;;;;;;4958174;28;20235;-45
2022/10/24 04:44:59;;;;;;;66.60;32.20;;;;;;;;;;4957216;28;20318;-45
2022/10/24 04:47:27;;;;;;;71.80;33.08;;;;;;;;;;4957032;28;20318;-45
2022/10/24 04:49:54;;;;;;;85.60;37.03;;;;;;;;;;4958275;29;20693;-45
2022/10/24 04:52:21;;;;;;;91.30;37.45;;;;;;;;;;4956491;28;20302;-45
2022/10/24 04:54:48;;;;;;;82.25;37.03;;;;;;;;;;4956773;28;20238;-45
2022/10/24 04:57:15;;;;;;;80.57;35.50;;;;;;;;;;4955369;28;20258;-45
2022/10/24 04:59:42;;;;;;;86.30;36.28;;;;;;;;;;4957949;28;20219;-46
2022/10/24 05:02:09;;;;;;;83.32;35.75;;;;;;;;;;4975796;28;20241;-45
2022/10/24 05:04:36;;;;;;;80.68;34.90;;;;;;;;;;4975855;28;20245;-44
2022/10/24 05:07:04;;;;;;;77.72;34.03;;;;;;;;;;4976906;28;20301;-48
2022/10/24 05:09:31;;;;;;;67.85;31.50;;;;;;;;;;4976348;28;20285;-46
2022/10/24 05:11:58;;;;;;;59.90;29.80;;;;;;;;;;4975676;28;20239;-46
2022/10/24 05:14:25;;;;;;;57.35;28.58;;;;;;;;;;4975830;28;20215;-46
2022/10/24 05:16:52;;;;;;;52.92;26.80;;;;;;;;;;4978082;28;20650;-45
2022/10/24 05:19:19;;;;;;;53.78;28.20;;;;;;;;;;4977647;28;20230;-45
2022/10/24 05:21:46;;;;;;;52.03;28.35;;;;;;;;;;4977717;28;20229;-45
2022/10/24 05:24:13;;;;;;;54.65;27.48;;;;;;;;;;4977572;28;20263;-45
2022/10/24 05:26:40;;;;;;;49.20;25.90;;;;;;;;;;4977626;28;20199;-45
2022/10/24 05:29:07;;;;;;;61.33;26.52;;;;;;;;;;4977741;28;20202;-45
2022/10/24 05:31:35;;;;;;;56.72;26.75;;;;;;;;;;4977599;28;20616;-45
2022/10/24 05:34:01;;;;;;;50.20;26.35;;;;;;;;;;4977694;28;20202;-45
2022/10/24 05:36:29;;;;;;;52.42;27.63;;;;;;;;;;4977302;28;20206;-45
2022/10/24 05:38:55;;;;;;;62.92;26.90;;;;;;;;;;4977591;28;20237;-45
2022/10/24 05:41:22;;;;;;;61.25;27.20;;;;;;;;;;4977501;28;20226;-45
2022/10/24 05:43:49;;;;;;;53.17;26.00;;;;;;;;;;4977596;28;20221;-45
2022/10/24 05:46:16;;;;;;;51.75;26.17;;;;;;;;;;4977857;28;20202;-45
2022/10/24 05:48:43;;;;;;;53.28;26.02;;;;;;;;;;4977465;28;20253;-46
2022/10/24 05:51:10;;;;;;;56.10;27.05;;;;;;;;;;4977421;28;20210;-45
2022/10/24 05:53:37;;;;;;;81.55;27.35;;;;;;;;;;4977486;28;20209;-46
2022/10/24 05:56:05;;;;;;;71.93;25.83;;;;;;;;;;4977190;28;20341;-46
2022/10/24 05:58:32;;;;;;;53.22;25.60;;;;;;;;;;4978091;28;20203;-45
2022/10/24 06:00:59;;;;;;;54.92;26.15;;;;;;;;;;4977341;28;20214;-45
2022/10/24 06:03:26;;;;;;;82.15;29.92;;;;;;;;;;4977594;28;20210;-46
2022/10/24 06:05:54;;;;;;;55.55;26.77;;;;;;;;;;4977171;28;20801;-46
2022/10/24 06:08:20;;;;;;;55.03;27.40;;;;;;;;;;4977233;28;20281;-45
2022/10/24 06:10:49;;;;;;;56.72;27.73;;;;;;;;;;4977077;28;20261;-45
2022/10/24 06:13:17;;;;;;;56.67;26.58;;;;;;;;;;4977045;28;20293;-45
2022/10/24 06:15:44;;;;;;;50.83;28.05;;;;;;;;;;4976805;28;20298;-45
2022/10/24 06:18:11;;;;;;;51.65;27.52;;;;;;;;;;4977170;28;20354;-45
2022/10/24 06:20:38;;;;;;;45.05;26.67;;;;;;;;;;4976992;28;20318;-45
2022/10/24 06:23:05;;;;;;;49.70;27.58;;;;;;;;;;4976424;28;20207;-45
2022/10/24 06:25:32;;;;;;;48.42;26.67;;;;;;;;;;4976616;28;20207;-45
2022/10/24 06:27:59;;;;;;;44.03;25.17;;;;;;;;;;4977160;28;20202;-45
2022/10/24 06:30:26;;;;;;;46.63;26.10;;;;;;;;;;4975987;28;20203;-45
2022/10/24 06:32:53;;;;;;;49.63;27.13;;;;;;;;;;4976463;28;20250;-45
2022/10/24 06:35:20;;;;;;;45.67;27.75;;;;;;;;;;4976579;28;20277;-45
2022/10/24 06:37:47;;;;;;;45.22;26.55;;;;;;;;;;4966749;28;20211;-45
2022/10/24 06:40:16;;;;;;;46.90;27.95;;;;;;;;;;4957683;28;20215;-45
2022/10/24 06:42:43;;;;;;;46.97;28.95;;;;;;;;;;4957110;28;20211;-45
2022/10/24 06:45:10;;;;;;;44.90;26.42;;;;;;;;;;4957284;28;20335;-46
2022/10/24 06:47:37;;;;;;;41.72;27.00;;;;;;;;;;4957159;28;20215;-45
2022/10/24 06:50:05;;;;;;;44.75;27.15;;;;;;;;;;4956182;29;20210;-45
2022/10/24 06:52:32;;;;;;;42.25;26.80;;;;;;;;;;4957119;28;20312;-45
2022/10/24 06:54:59;;;;;;;45.15;26.95;;;;;;;;;;4957088;28;20262;-45
2022/10/24 06:57:26;;;;;;;44.38;27.77;;;;;;;;;;4956931;28;20270;-45
2022/10/24 06:59:53;;;;;;;45.67;27.85;;;;;;;;;;4956963;28;20218;-45
2022/10/24 07:02:20;;;;;;;45.28;27.20;;;;;;;;;;4956991;28;20247;-45
2022/10/24 07:04:48;;;;;;;39.35;26.42;;;;;;;;;;4956901;28;20239;-45
2022/10/24 07:07:17;;;;;;;50.00;29.00;;;;;;;;;;4956982;28;20218;-45
2022/10/24 07:09:53;;;;;;;44.75;29.23;;;;;;;;;;4956746;28;20203;-45
2022/10/24 07:12:21;;;;;;;48.65;28.92;;;;;;;;;;4956648;28;20745;-45
2022/10/24 07:14:48;;;;;;;46.70;29.48;;;;;;;;;;4956728;28;20195;-45
2022/10/24 07:17:16;;;;;;;47.70;28.98;;;;;;;;;;4956016;29;20230;-45
2022/10/24 07:19:44;;;;;;;46.70;29.70;;;;;;;;;;4956509;29;20207;-45
2022/10/24 07:22:10;;;;;;;50.95;29.67;;;;;;;;;;4956641;28;20211;-45
2022/10/24 07:24:38;;;;;;;51.10;29.83;;;;;;;;;;4956680;28;20203;-45
2022/10/24 07:27:04;;;;;;;48.55;29.75;;;;;;;;;;4956893;28;20273;-45
2022/10/24 07:29:32;;;;;;;43.65;28.77;;;;;;;;;;4956527;29;20647;-45
2022/10/24 07:31:58;;;;;;;46.97;28.58;;;;;;;;;;4956801;28;20250;-45
2022/10/24 07:34:26;;;;;;;43.38;28.38;;;;;;;;;;4955882;28;20218;-45
2022/10/24 07:36:52;;;;;;;46.28;28.13;;;;;;;;;;4960107;28;20627;-45
2022/10/24 07:39:19;;;;;;;42.65;26.60;;;;;;;;;;4960459;28;20204;-45
2022/10/24 07:41:46;;;;;;;45.78;28.25;;;;;;;;;;4960510;28;20262;-46
2022/10/24 07:44:13;;;;;;;40.55;27.17;;;;;;;;;;4960526;28;20191;-45
2022/10/24 07:46:41;;;;;;;45.05;29.00;;;;;;;;;;4960507;28;20203;-45
2022/10/24 07:49:08;;;;;;;45.25;28.70;;;;;;;;;;4961225;28;20203;-45
2022/10/24 07:51:36;;;;;;;41.95;28.58;;;;;;;;;;4960832;28;20266;-45
2022/10/24 07:54:03;;;;;;;46.45;29.50;;;;;;;;;;4960349;28;20203;-45
2022/10/24 07:56:30;;;;;;;44.67;29.60;;;;;;;;;;4960216;28;20215;-45
2022/10/24 07:58:59;;;;;;;49.78;29.35;;;;;;;;;;4960249;28;20265;-45
2022/10/24 08:01:35;;;;;;;51.30;30.33;;;;;;;;;;4960501;28;20273;-45
2022/10/24 08:04:02;;;;;;;48.15;29.30;;;;;;;;;;4959145;29;20306;-45
2022/10/24 08:06:30;;;;;;;47.83;29.15;;;;;;;;;;4960327;28;20520;-46
2022/10/24 08:08:58;;;;;;;46.55;29.27;;;;;;;;;;4960301;28;20547;-45
2022/10/24 08:11:26;;;;;;;51.88;31.38;;;;;;;;;;4959775;28;20227;-45
2022/10/24 08:13:54;;;;;;;48.38;28.75;;;;;;;;;;4959671;28;20227;-46
2022/10/24 08:16:22;;;;;;;48.75;29.60;;;;;;;;;;4959679;29;20634;-46
2022/10/24 08:18:50;;;;;;;46.55;30.02;;;;;;;;;;4959957;28;20207;-45
2022/10/24 08:21:19;;;;;;;46.78;29.10;;;;;;;;;;4959843;29;20235;-46
2022/10/24 08:23:50;;;;;;;46.80;29.40;;;;;;;;;;4958765;29;20219;-45
2022/10/24 08:26:20;;;;;;;46.33;30.65;;;;;;;;;;4959430;29;20207;-45
2022/10/24 08:28:48;;;;;;;47.70;29.65;;;;;;;;;;4958726;29;20662;-45
2022/10/24 08:31:17;;;;;;;50.80;30.77;;;;;;;;;;4959700;28;20203;-45
2022/10/24 08:33:44;;;;;;;55.00;30.27;;;;;;;;;;4959731;28;20231;-45
2022/10/24 08:36:19;;;;;;;47.03;29.23;;;;;;;;;;4959465;29;20207;-46
2022/10/24 08:38:46;;;;;;;51.33;31.38;;;;;;;;;;4959352;28;20214;-45
2022/10/24 08:41:37;;;;;;;49.10;30.60;;;;;;;;;;4959577;28;20262;-45
2022/10/24 08:44:17;;;;;;;54.63;31.30;;;;;;;;;;4959002;29;20219;-45
2022/10/24 08:46:50;;;;;;;49.35;30.85;;;;;;;;;;4959414;28;20214;-45
2022/10/24 08:49:23;;;;;;;54.85;31.25;;;;;;;;;;4959215;29;20211;-45
2022/10/24 08:51:54;;;;;;;49.70;31.02;;;;;;;;;;4959896;29;20217;-45
2022/10/24 08:54:26;;;;;;;46.25;30.35;;;;;;;;;;4959063;28;20208;-45
2022/10/24 08:56:56;;;;;;;47.55;29.65;;;;;;;;;;4958598;29;20591;-45
2022/10/24 08:59:26;;;;;;;44.60;29.88;;;;;;;;;;4959204;28;20207;-46
2022/10/24 09:01:59;;;;;;;48.65;30.63;;;;;;;;;;4958333;29;20215;-45
2022/10/24 09:04:39;;;;;;;53.03;30.92;;;;;;;;;;4958179;28;20231;-45
2022/10/24 09:07:13;;;;;;;44.70;29.52;;;;;;;;;;4958324;29;20195;-45
2022/10/24 09:09:45;;;;;;;42.90;28.98;;;;;;;;;;4957811;29;20327;-46
2022/10/24 09:12:14;;;;;;;45.28;29.65;;;;;;;;;;4957937;29;20184;-45
2022/10/24 09:14:43;;;;;;;42.33;28.38;;;;;;;;;;4958713;28;20627;-47
2022/10/24 09:17:18;;;;;;;44.30;28.45;;;;;;;;;;4959338;28;20199;-45
2022/10/24 09:19:55;;;;;;;45.80;29.38;;;;;;;;;;4958156;29;20278;-45
2022/10/24 09:22:23;;;;;;;43.17;27.65;;;;;;;;;;4958844;29;20210;-45
2022/10/24 09:24:54;;;;;;;42.67;30.02;;;;;;;;;;4957965;29;20262;-46
2022/10/24 09:27:28;;;;;;;49.97;31.90;;;;;;;;;;4958443;29;20294;-45
2022/10/24 09:29:56;;;;;;;48.65;31.63;;;;;;;;;;4941959;29;20217;-46
2022/10/24 09:32:26;;;;;;;45.78;29.30;;;;;;;;;;4925246;29;20224;-45
2022/10/24 09:34:54;;;;;;;45.47;28.77;;;;;;;;;;4958537;28;20208;-45
2022/10/24 09:37:39;;;;;;;44.50;28.70;;;;;;;;;;4958230;28;20291;-45
2022/10/24 09:40:21;;;;;;;47.00;30.90;;;;;;;;;;4958588;28;20277;-46
2022/10/24 09:42:57;;;;;;;42.75;27.92;;;;;;;;;;4957840;29;20211;-45
2022/10/24 09:45:34;;;;;;;44.38;28.50;;;;;;;;;;4958239;28;20199;-46
2022/10/24 09:48:21;;;;;;;43.00;27.70;;;;;;;;;;4957755;29;20294;-45
2022/10/24 09:50:55;;;;;;;43.45;27.63;;;;;;;;;;4942277;29;20273;-45
2022/10/24 09:53:31;;;;;;;39.47;27.55;;;;;;;;;;4958202;28;20285;-46
2022/10/24 09:56:11;;;;;;;41.80;27.67;;;;;;;;;;4958261;28;20630;-46
2022/10/24 09:58:39;;;;;;;48.10;27.88;;;;;;;;;;4957721;28;20203;-46
2022/10/24 10:01:18;;;;;;;42.88;28.10;;;;;;;;;;4958038;28;20210;-45
2022/10/24 10:04:04;;;;;;;45.28;27.98;;;;;;;;;;4957979;28;20199;-45
2022/10/24 10:06:43;;;;;;;51.00;29.67;;;;;;;;;;4957488;29;20218;-45
2022/10/24 10:09:18;;;;;;;48.22;28.42;;;;;;;;;;4956917;29;20623;-46
2022/10/24 10:11:54;;;;;;;47.15;30.02;;;;;;;;;;4957015;29;20626;-45
2022/10/24 10:14:28;;;;;;;44.80;26.35;;;;;;;;;;4957021;29;20254;-46
2022/10/24 10:17:04;;;;;;;35.15;24.02;;;;;;;;;;4940384;29;20206;-45
2022/10/24 10:19:35;;;;;;;35.45;24.00;;;;;;;;;;4957899;28;20214;-45
2022/10/24 10:22:19;;;;;;;36.28;24.80;;;;;;;;;;4958386;28;20199;-45
2022/10/24 10:24:46;;;;;;;32.88;21.77;;;;;;;;;;4957619;28;20208;-45
2022/10/24 10:27:23;;;;;;;30.77;21.85;;;;;;;;;;4957296;28;20215;-45
2022/10/24 10:30:16;;;;;;;30.10;22.40;;;;;;;;;;4957797;28;20203;-45
2022/10/24 10:33:02;;;;;;;31.90;22.20;;;;;;;;;;4957468;28;20325;-46
2022/10/24 10:35:47;;;;;;;32.20;21.67;;;;;;;;;;4957269;29;20227;-46
2022/10/24 10:38:35;;;;;;;29.40;20.65;;;;;;;;;;4957202;28;20210;-46
2022/10/24 10:41:07;;;;;;;29.70;20.83;;;;;;;;;;4957089;28;20230;-46
2022/10/24 10:44:01;;;;;;;29.17;20.30;;;;;;;;;;4957539;28;20206;-46
2022/10/24 10:46:38;;;;;;;28.60;19.67;;;;;;;;;;4941167;29;20210;-46
2022/10/24 10:49:41;;;;;;;26.33;19.15;;;;;;;;;;4956722;29;20184;-46
2022/10/24 10:52:38;;;;;;;26.08;20.13;;;;;;;;;;4956912;28;20201;-47
2022/10/24 10:55:24;;;;;;;21.70;16.45;;;;;;;;;;4953225;29;20211;-46
2022/10/24 10:58:05;;;;;;;19.35;15.18;;;;;;;;;;4957147;29;20211;-46
2022/10/24 11:00:59;;;;;;;21.08;15.65;;;;;;;;;;4954033;29;20306;-49
2022/10/24 11:03:32;;;;;;;24.35;16.95;;;;;;;;;;4955911;29;20199;-47
2022/10/24 11:06:19;;;;;;;20.95;15.50;;;;;;;;;;4956313;28;20527;-47
2022/10/24 11:09:12;;;;;;;20.98;15.38;;;;;;;;;;4956928;28;20278;-47
2022/10/24 11:12:04;;;;;;;20.33;15.18;;;;;;;;;;4954925;29;20506;-46
2022/10/24 11:14:54;;;;;;;23.38;16.13;;;;;;;;;;4956320;28;20223;-46
2022/10/24 11:17:30;;;;;;;24.00;15.18;;;;;;;;;;4950627;29;20199;-47
2022/10/24 11:20:15;;;;;;;23.73;15.60;;;;;;;;;;4956108;29;20195;-47
2022/10/24 11:22:46;;;;;;;20.38;15.52;;;;;;;;;;4955397;29;20199;-47
2022/10/24 11:25:41;;;;;;;20.90;14.95;;;;;;;;;;4956276;29;20179;-48
2022/10/24 11:28:14;;;;;;;20.17;14.85;;;;;;;;;;4952463;29;20651;-47
2022/10/24 11:30:58;;;;;;;19.75;15.65;;;;;;;;;;4956145;28;20199;-46
2022/10/24 11:33:29;;;;;;;20.77;16.00;;;;;;;;;;4955679;29;20211;-46
2022/10/24 11:36:06;;;;;;;21.20;14.43;;;;;;;;;;4952686;29;20196;-48
2022/10/24 11:38:35;;;;;;;21.95;15.27;;;;;;;;;;4955201;29;20187;-47
2022/10/24 11:41:23;;;;;;;19.95;14.50;;;;;;;;;;4954984;29;20240;-47
2022/10/24 11:43:53;;;;;;;20.80;14.05;;;;;;;;;;4935620;29;20200;-47
2022/10/24 11:46:26;;;;;;;20.02;14.57;;;;;;;;;;4952265;29;20643;-47
2022/10/24 11:49:31;;;;;;;17.77;14.07;;;;;;;;;;4955887;28;20187;-47
2022/10/24 11:52:18;;;;;;;21.63;14.25;;;;;;;;;;4932038;29;20208;-49
2022/10/24 11:55:07;;;;;;;20.05;13.68;;;;;;;;;;4932445;29;20232;-48
2022/10/24 11:57:34;;;;;;;18.35;12.73;;;;;;;;;;4943637;29;20210;-47
2022/10/24 12:00:03;;;;;;;19.02;13.60;;;;;;;;;;4954456;29;20211;-47
2022/10/24 12:03:09;;;;;;;20.08;13.70;;;;;;;;;;4953781;29;20630;-48
2022/10/24 12:05:54;;;;;;;19.75;13.57;;;;;;;;;;4925357;29;20238;-49
2022/10/24 12:08:45;;;;;;;19.75;13.18;;;;;;;;;;4954145;29;20207;-48
2022/10/24 12:11:30;;;;;;;18.77;14.25;;;;;;;;;;4954111;29;20292;-48
2022/10/24 12:14:17;;;;;;;20.17;13.60;;;;;;;;;;4954556;29;20337;-49
2022/10/24 12:16:57;;;;;;;20.30;13.13;;;;;;;;;;4954118;29;20207;-49
2022/10/24 12:19:25;;;;;;;22.48;15.88;;;;;;;;;;4954402;29;20184;-47
2022/10/24 12:21:57;;;;;;;22.65;15.45;;;;;;;;;;4955635;28;20644;-49
2022/10/24 12:24:31;;;;;;;22.40;14.60;;;;;;;;;;4957887;29;20200;-48
2022/10/24 12:27:04;;;;;;;21.70;14.65;;;;;;;;;;4957790;29;20195;-48
2022/10/24 12:29:33;;;;;;;20.08;13.43;;;;;;;;;;4959390;28;20589;-48
2022/10/24 12:32:23;;;;;;;18.27;13.27;;;;;;;;;;4958780;28;20710;-49
2022/10/24 12:34:58;;;;;;;16.23;11.98;;;;;;;;;;4952170;28;20238;-49
2022/10/24 12:37:46;;;;;;;15.77;12.02;;;;;;;;;;4958254;29;20671;-49
2022/10/24 12:40:44;;;;;;;15.45;11.73;;;;;;;;;;4957188;28;20239;-53
2022/10/24 12:43:15;;;;;;;18.33;12.30;;;;;;;;;;4957922;28;20231;-50
2022/10/24 12:45:42;;;;;;;14.93;10.95;;;;;;;;;;4952650;28;20228;-49
2022/10/24 12:48:25;;;;;;;18.05;11.75;;;;;;;;;;4958093;29;20231;-49
2022/10/24 12:51:32;;;;;;;13.15;9.60;;;;;;;;;;4941558;29;20234;-47
2022/10/24 12:54:10;;;;;;;13.05;9.23;;;;;;;;;;4958239;28;20247;-47
2022/10/24 12:56:49;;;;;;;14.13;9.32;;;;;;;;;;4957513;28;20257;-47
2022/10/24 12:59:30;;;;;;;14.80;10.98;;;;;;;;;;4957983;28;20701;-48
2022/10/24 13:02:34;;;;;;;15.50;11.15;;;;;;;;;;4956634;29;20232;-46
2022/10/24 13:05:16;;;;;;;16.55;10.85;;;;;;;;;;4924122;28;20239;-49
2022/10/24 13:08:16;;;;;;;11.73;9.43;;;;;;;;;;4957231;29;20332;-52
2022/10/24 13:10:46;;;;;;;15.27;9.77;;;;;;;;;;4898562;29;20233;-55
2022/10/24 13:13:16;;;;;;;14.15;10.13;;;;;;;;;;4899382;29;20609;-49
2022/10/24 13:15:52;;;;;;;15.63;11.68;;;;;;;;;;4898281;29;20230;-49
2022/10/24 13:18:34;;;;;;;13.45;10.95;;;;;;;;;;4899625;29;20618;-53
2022/10/24 13:21:15;;;;;;;12.30;9.57;;;;;;;;;;4899015;29;20253;-50
2022/10/24 13:23:44;;;;;;;14.73;9.63;;;;;;;;;;4883906;29;20225;-55
2022/10/24 13:26:39;;;;;;;13.02;9.52;;;;;;;;;;4898710;29;20308;-51
2022/10/24 13:29:24;;;;;;;14.20;10.80;;;;;;;;;;4899699;29;20220;-54
2022/10/24 13:32:13;;;;;;;13.68;9.77;;;;;;;;;;4898789;29;20205;-53
2022/10/24 13:34:53;;;;;;;16.10;9.95;;;;;;;;;;4889277;29;20229;-55
2022/10/24 13:37:29;;;;;;;12.85;9.57;;;;;;;;;;4899926;29;20239;-55
2022/10/24 13:40:13;;;;;;;13.00;9.75;;;;;;;;;;4884653;29;20209;-54
2022/10/24 13:43:05;;;;;;;12.43;9.73;;;;;;;;;;4899885;29;20213;-50
2022/10/24 13:46:08;;;;;;;12.45;8.40;;;;;;;;;;4894510;29;20248;-49
2022/10/24 13:48:44;;;;;;;12.43;8.45;;;;;;;;;;4864752;29;20230;-51
2022/10/24 13:51:17;;;;;;;9.75;7.88;;;;;;;;;;4877900;29;20842;-50
2022/10/24 13:54:08;;;;;;;9.98;8.05;;;;;;;;;;4877970;29;20261;-53
2022/10/24 13:56:38;;;;;;;15.60;9.20;;;;;;;;;;4870217;29;20234;-50
2022/10/24 13:59:06;;;;;;;14.38;8.63;;;;;;;;;;4878355;29;20309;-48
2022/10/24 14:01:35;;;;;;;12.05;8.43;;;;;;;;;;4864115;29;20230;-54
2022/10/24 14:04:02;;;;;;;11.00;7.88;;;;;;;;;;4879195;29;20324;-51
2022/10/24 14:06:31;;;;;;;11.40;8.35;;;;;;;;;;4879676;29;20608;-55
2022/10/24 14:09:09;;;;;;;14.02;8.30;;;;;;;;;;4879631;29;20789;-53
2022/10/24 14:11:58;;;;;;;11.38;8.65;;;;;;;;;;4879489;29;20320;-53
2022/10/24 14:14:34;;;;;;;11.95;8.70;;;;;;;;;;4879420;29;20257;-55
2022/10/24 14:17:21;;;;;;;13.60;8.30;;;;;;;;;;4863839;29;20272;-53
2022/10/24 14:19:58;;;;;;;10.20;8.25;;;;;;;;;;4879499;29;20230;-55
2022/10/24 14:22:39;;;;;;;11.18;7.82;;;;;;;;;;4879253;29;20248;-55
2022/10/24 14:25:45;;;;;;;10.13;8.60;;;;;;;;;;4947300;29;20227;-54
2022/10/24 14:28:16;;;;;;;14.27;11.05;;;;;;;;;;4957488;29;20231;-54
2022/10/24 14:30:55;;;;;;;12.82;9.18;;;;;;;;;;4954945;28;20659;-53
2022/10/24 14:33:26;;;;;;;12.80;9.63;;;;;;;;;;4956740;29;20258;-50
2022/10/24 14:35:55;;;;;;;11.32;9.15;;;;;;;;;;4956380;28;20239;-51
2022/10/24 14:38:26;;;;;;;12.60;9.35;;;;;;;;;;4956002;29;20235;-52
2022/10/24 14:40:54;;;;;;;13.25;10.52;;;;;;;;;;4955136;28;20221;-51
2022/10/24 14:43:39;;;;;;;12.02;9.50;;;;;;;;;;4956963;28;20223;-51
2022/10/24 14:46:12;;;;;;;12.20;9.10;;;;;;;;;;4954938;28;20227;-52
2022/10/24 14:48:42;;;;;;;12.73;8.85;;;;;;;;;;4956500;28;20220;-50
2022/10/24 14:51:15;;;;;;;15.40;9.55;;;;;;;;;;4955487;28;20230;-53